sensor_id;sensor_type;location;lat;lon;timestamp;pressure;altitude;pressure_sealevel;temperature;humidity
54948;BME280;41113;41.882;12.530;2022-10-16T00:00:51;101547.63;;;16.56;87.84
54948;BME280;41113;41.882;12.530;2022-10-16T00:03:16;101537.41;;;16.50;88.21
54948;BME280;41113;41.882;12.530;2022-10-16T00:05:45;101540.88;;;16.42;88.43
54948;BME280;41113;41.882;12.530;2022-10-16T00:08:11;101537.47;;;16.40;88.55
54948;BME280;41113;41.882;12.530;2022-10-16T00:10:38;101550.25;;;16.30;89.36
54948;BME280;41113;41.882;12.530;2022-10-16T00:13:06;101550.41;;;16.29;89.15
54948;BME280;41113;41.882;12.530;2022-10-16T00:15:36;101550.41;;;16.29;88.54
54948;BME280;41113;41.882;12.530;2022-10-16T00:18:03;101543.28;;;16.28;88.50
54948;BME280;41113;41.882;12.530;2022-10-16T00:20:29;101547.34;;;16.14;88.88
54948;BME280;41113;41.882;12.530;2022-10-16T00:22:56;101549.97;;;16.06;90.01
54948;BME280;41113;41.882;12.530;2022-10-16T00:25:22;101555.06;;;16.09;89.55
54948;BME280;41113;41.882;12.530;2022-10-16T00:27:47;101547.25;;;16.06;89.64
54948;BME280;41113;41.882;12.530;2022-10-16T00:30:13;101549.66;;;16.09;89.07
54948;BME280;41113;41.882;12.530;2022-10-16T00:32:38;101552.22;;;16.10;88.48
54948;BME280;41113;41.882;12.530;2022-10-16T00:35:04;101551.34;;;16.10;87.76
54948;BME280;41113;41.882;12.530;2022-10-16T00:37:30;101551.44;;;16.18;87.48
54948;BME280;41113;41.882;12.530;2022-10-16T00:39:55;101544.38;;;16.07;87.55
54948;BME280;41113;41.882;12.530;2022-10-16T00:42:22;101549.56;;;16.01;87.92
54948;BME280;41113;41.882;12.530;2022-10-16T00:44:53;101555.00;;;15.91;87.81
54948;BME280;41113;41.882;12.530;2022-10-16T00:47:30;101561.72;;;15.87;87.69
54948;BME280;41113;41.882;12.530;2022-10-16T00:50:02;101548.03;;;15.88;87.57
54948;BME280;41113;41.882;12.530;2022-10-16T00:52:30;101546.63;;;15.84;87.39
54948;BME280;41113;41.882;12.530;2022-10-16T00:54:56;101549.78;;;15.80;87.74
54948;BME280;41113;41.882;12.530;2022-10-16T00:57:22;101553.19;;;15.82;87.67
54948;BME280;41113;41.882;12.530;2022-10-16T00:59:48;101547.78;;;15.82;87.72
54948;BME280;41113;41.882;12.530;2022-10-16T01:02:15;101554.34;;;15.79;87.53
54948;BME280;41113;41.882;12.530;2022-10-16T01:04:46;101549.34;;;15.84;87.56
54948;BME280;41113;41.882;12.530;2022-10-16T01:07:20;101544.22;;;15.81;87.36
54948;BME280;41113;41.882;12.530;2022-10-16T01:12:30;101539.56;;;15.74;88.14
54948;BME280;41113;41.882;12.530;2022-10-16T01:28:13;101551.25;;;15.74;87.82
54948;BME280;41113;41.882;12.530;2022-10-16T01:30:42;101554.66;;;15.76;87.88
54948;BME280;41113;41.882;12.530;2022-10-16T01:33:20;101554.66;;;15.76;87.91
54948;BME280;41113;41.882;12.530;2022-10-16T01:35:53;101557.66;;;15.73;87.99
54948;BME280;41113;41.882;12.530;2022-10-16T01:38:29;101561.06;;;15.75;87.69
54948;BME280;41113;41.882;12.530;2022-10-16T01:41:10;101552.94;;;15.75;87.66
54948;BME280;41113;41.882;12.530;2022-10-16T01:44:06;101547.84;;;15.72;87.64
54948;BME280;41113;41.882;12.530;2022-10-16T01:46:31;101555.81;;;15.74;87.19
54948;BME280;41113;41.882;12.530;2022-10-16T01:48:57;101557.81;;;15.72;87.66
54948;BME280;41113;41.882;12.530;2022-10-16T01:51:25;101548.44;;;15.66;87.69
54948;BME280;41113;41.882;12.530;2022-10-16T01:53:53;101554.41;;;15.60;87.80
54948;BME280;41113;41.882;12.530;2022-10-16T01:56:21;101551.28;;;15.65;87.61
54948;BME280;41113;41.882;12.530;2022-10-16T01:59:05;101553.56;;;15.69;87.59
54948;BME280;41113;41.882;12.530;2022-10-16T02:01:34;101551.44;;;15.63;87.55
54948;BME280;41113;41.882;12.530;2022-10-16T02:06:48;101559.81;;;15.60;87.71
54948;BME280;41113;41.882;12.530;2022-10-16T02:09:13;101561.69;;;15.60;87.77
54948;BME280;41113;41.882;12.530;2022-10-16T02:11:42;101560.09;;;15.57;87.86
54948;BME280;41113;41.882;12.530;2022-10-16T02:14:08;101554.69;;;15.57;87.54
54948;BME280;41113;41.882;12.530;2022-10-16T02:16:42;101561.81;;;15.58;87.36
54948;BME280;41113;41.882;12.530;2022-10-16T02:19:09;101567.25;;;15.58;87.09
54948;BME280;41113;41.882;12.530;2022-10-16T02:21:51;101567.81;;;15.52;87.64
54948;BME280;41113;41.882;12.530;2022-10-16T02:24:57;101566.25;;;15.49;87.46
54948;BME280;41113;41.882;12.530;2022-10-16T02:27:33;101563.84;;;15.46;87.49
54948;BME280;41113;41.882;12.530;2022-10-16T02:30:13;101561.69;;;15.50;87.14
54948;BME280;41113;41.882;12.530;2022-10-16T02:32:42;101563.09;;;15.54;86.96
54948;BME280;41113;41.882;12.530;2022-10-16T02:35:09;101563.66;;;15.57;86.90
54948;BME280;41113;41.882;12.530;2022-10-16T02:37:36;101563.53;;;15.59;86.27
54948;BME280;41113;41.882;12.530;2022-10-16T02:40:04;101554.69;;;15.57;86.31
54948;BME280;41113;41.882;12.530;2022-10-16T02:42:38;101565.81;;;15.54;86.75
54948;BME280;41113;41.882;12.530;2022-10-16T02:45:08;101568.69;;;15.62;86.31
54948;BME280;41113;41.882;12.530;2022-10-16T02:47:34;101572.09;;;15.64;86.20
54948;BME280;41113;41.882;12.530;2022-10-16T02:49:59;101563.38;;;15.61;86.44
54948;BME280;41113;41.882;12.530;2022-10-16T02:52:25;101562.41;;;15.62;86.53
54948;BME280;41113;41.882;12.530;2022-10-16T02:54:51;101570.94;;;15.57;86.62
54948;BME280;41113;41.882;12.530;2022-10-16T02:57:17;101566.41;;;15.48;87.34
54948;BME280;41113;41.882;12.530;2022-10-16T02:59:43;101560.72;;;15.41;87.62
54948;BME280;41113;41.882;12.530;2022-10-16T03:02:09;101565.28;;;15.41;87.56
54948;BME280;41113;41.882;12.530;2022-10-16T03:04:34;101569.28;;;15.37;87.50
54948;BME280;41113;41.882;12.530;2022-10-16T03:07:00;101569.56;;;15.43;87.14
54948;BME280;41113;41.882;12.530;2022-10-16T03:09:25;101570.69;;;15.41;87.28
54948;BME280;41113;41.882;12.530;2022-10-16T03:11:51;101567.28;;;15.39;87.52
54948;BME280;41113;41.882;12.530;2022-10-16T03:14:17;101567.28;;;15.39;87.05
54948;BME280;41113;41.882;12.530;2022-10-16T03:16:42;101568.28;;;15.38;86.82
54948;BME280;41113;41.882;12.530;2022-10-16T03:19:09;101564.00;;;15.45;86.79
54948;BME280;41113;41.882;12.530;2022-10-16T03:21:34;101576.41;;;15.38;87.72
54948;BME280;41113;41.882;12.530;2022-10-16T03:23:59;101562.75;;;15.30;89.19
54948;BME280;41113;41.882;12.530;2022-10-16T03:26:25;101567.59;;;15.16;90.21
54948;BME280;41113;41.882;12.530;2022-10-16T03:28:50;101562.47;;;15.13;90.58
54948;BME280;41113;41.882;12.530;2022-10-16T03:31:16;101562.19;;;15.16;90.56
54948;BME280;41113;41.882;12.530;2022-10-16T03:33:41;101563.91;;;15.17;90.03
54948;BME280;41113;41.882;12.530;2022-10-16T03:36:07;101568.72;;;15.23;89.62
54948;BME280;41113;41.882;12.530;2022-10-16T03:38:32;101563.03;;;15.36;88.94
54948;BME280;41113;41.882;12.530;2022-10-16T03:40:58;101571.56;;;15.32;89.41
54948;BME280;41113;41.882;12.530;2022-10-16T03:43:23;101565.00;;;15.24;88.83
54948;BME280;41113;41.882;12.530;2022-10-16T03:45:50;101567.16;;;15.21;89.40
54948;BME280;41113;41.882;12.530;2022-10-16T03:48:17;101576.13;;;15.21;89.17
54948;BME280;41113;41.882;12.530;2022-10-16T03:50:42;101580.72;;;15.11;89.85
54948;BME280;41113;41.882;12.530;2022-10-16T03:53:19;101573.31;;;15.13;89.79
54948;BME280;41113;41.882;12.530;2022-10-16T03:55:44;101578.41;;;15.16;89.38
54948;BME280;41113;41.882;12.530;2022-10-16T03:58:10;101582.69;;;15.29;88.58
54948;BME280;41113;41.882;12.530;2022-10-16T04:00:36;101575.69;;;15.26;88.68
54948;BME280;41113;41.882;12.530;2022-10-16T04:03:11;101584.13;;;15.33;88.33
54948;BME280;41113;41.882;12.530;2022-10-16T04:05:37;101575.84;;;15.24;88.83
54948;BME280;41113;41.882;12.530;2022-10-16T04:08:02;101577.00;;;15.32;88.89
54948;BME280;41113;41.882;12.530;2022-10-16T04:10:28;101579.25;;;15.36;88.31
54948;BME280;41113;41.882;12.530;2022-10-16T04:12:54;101593.75;;;15.45;87.83
54948;BME280;41113;41.882;12.530;2022-10-16T04:15:21;101584.75;;;15.54;87.34
54948;BME280;41113;41.882;12.530;2022-10-16T04:17:47;101595.75;;;15.43;87.18
54948;BME280;41113;41.882;12.530;2022-10-16T04:20:12;101602.34;;;15.31;88.28
54948;BME280;41113;41.882;12.530;2022-10-16T04:22:38;101607.78;;;15.11;89.47
54948;BME280;41113;41.882;12.530;2022-10-16T04:25:04;101605.34;;;15.08;89.89
54948;BME280;41113;41.882;12.530;2022-10-16T04:27:30;101605.94;;;15.02;89.95
54948;BME280;41113;41.882;12.530;2022-10-16T04:29:57;101598.25;;;14.98;89.95
54948;BME280;41113;41.882;12.530;2022-10-16T04:32:22;101603.94;;;15.04;90.03
54948;BME280;41113;41.882;12.530;2022-10-16T04:34:48;101617.47;;;15.04;89.76
54948;BME280;41113;41.882;12.530;2022-10-16T04:37:16;101618.16;;;15.06;89.55
54948;BME280;41113;41.882;12.530;2022-10-16T04:39:42;101612.03;;;15.04;89.32
54948;BME280;41113;41.882;12.530;2022-10-16T04:42:07;101615.47;;;15.06;89.31
54948;BME280;41113;41.882;12.530;2022-10-16T04:44:35;101620.03;;;14.96;89.38
54948;BME280;41113;41.882;12.530;2022-10-16T04:47:01;101614.19;;;15.10;89.08
54948;BME280;41113;41.882;12.530;2022-10-16T04:49:26;101610.91;;;15.16;88.35
54948;BME280;41113;41.882;12.530;2022-10-16T04:51:51;101610.06;;;15.06;88.21
54948;BME280;41113;41.882;12.530;2022-10-16T04:54:17;101611.31;;;14.83;89.77
54948;BME280;41113;41.882;12.530;2022-10-16T04:56:42;101610.31;;;14.74;90.83
54948;BME280;41113;41.882;12.530;2022-10-16T04:59:15;101612.16;;;14.74;90.94
54948;BME280;41113;41.882;12.530;2022-10-16T05:01:41;101602.06;;;14.66;90.96
54948;BME280;41113;41.882;12.530;2022-10-16T05:04:07;101602.34;;;14.73;91.02
54948;BME280;41113;41.882;12.530;2022-10-16T05:06:32;101605.47;;;14.78;90.31
54948;BME280;41113;41.882;12.530;2022-10-16T05:08:58;101603.50;;;14.80;90.05
54948;BME280;41113;41.882;12.530;2022-10-16T05:11:23;101602.50;;;14.71;90.57
54948;BME280;41113;41.882;12.530;2022-10-16T05:13:48;101603.63;;;14.69;90.76
54948;BME280;41113;41.882;12.530;2022-10-16T05:16:14;101610.47;;;14.73;90.71
54948;BME280;41113;41.882;12.530;2022-10-16T05:18:39;101608.03;;;14.70;90.46
54948;BME280;41113;41.882;12.530;2022-10-16T05:21:25;101608.47;;;14.75;90.32
54948;BME280;41113;41.882;12.530;2022-10-16T05:23:53;101613.88;;;14.75;89.90
54948;BME280;41113;41.882;12.530;2022-10-16T05:26:18;101610.19;;;14.76;89.96
54948;BME280;41113;41.882;12.530;2022-10-16T05:28:43;101608.03;;;14.79;89.49
54948;BME280;41113;41.882;12.530;2022-10-16T05:31:09;101608.31;;;14.76;89.61
54948;BME280;41113;41.882;12.530;2022-10-16T05:33:35;101618.56;;;14.73;89.85
54948;BME280;41113;41.882;12.530;2022-10-16T05:36:05;101617.72;;;14.72;89.70
54948;BME280;41113;41.882;12.530;2022-10-16T05:38:33;101622.28;;;14.81;89.19
54948;BME280;41113;41.882;12.530;2022-10-16T05:40:58;101620.56;;;14.80;89.26
54948;BME280;41113;41.882;12.530;2022-10-16T05:43:23;101618.56;;;14.82;88.90
54948;BME280;41113;41.882;12.530;2022-10-16T05:46:04;101622.41;;;14.80;89.25
54948;BME280;41113;41.882;12.530;2022-10-16T05:48:30;101623.84;;;14.84;89.14
54948;BME280;41113;41.882;12.530;2022-10-16T05:51:05;101629.09;;;14.85;88.66
54948;BME280;41113;41.882;12.530;2022-10-16T05:53:34;101627.97;;;14.88;88.91
54948;BME280;41113;41.882;12.530;2022-10-16T05:56:00;101633.09;;;14.91;88.61
54948;BME280;41113;41.882;12.530;2022-10-16T05:58:30;101634.81;;;14.92;88.22
54948;BME280;41113;41.882;12.530;2022-10-16T06:00:57;101638.38;;;14.92;88.19
54948;BME280;41113;41.882;12.530;2022-10-16T06:03:23;101642.53;;;14.97;88.11
54948;BME280;41113;41.882;12.530;2022-10-16T06:05:49;101645.78;;;15.00;88.07
54948;BME280;41113;41.882;12.530;2022-10-16T06:08:26;101644.22;;;15.07;87.46
54948;BME280;41113;41.882;12.530;2022-10-16T06:11:06;101646.94;;;15.07;87.36
54948;BME280;41113;41.882;12.530;2022-10-16T06:13:32;101648.06;;;15.05;87.53
54948;BME280;41113;41.882;12.530;2022-10-16T06:15:59;101651.34;;;15.08;87.32
54948;BME280;41113;41.882;12.530;2022-10-16T06:18:26;101648.34;;;15.11;87.34
54948;BME280;41113;41.882;12.530;2022-10-16T06:20:52;101662.31;;;15.16;86.88
54948;BME280;41113;41.882;12.530;2022-10-16T06:23:18;101670.13;;;15.19;86.75
54948;BME280;41113;41.882;12.530;2022-10-16T06:25:43;101665.59;;;15.30;86.28
54948;BME280;41113;41.882;12.530;2022-10-16T06:28:09;101668.28;;;15.49;85.55
54948;BME280;41113;41.882;12.530;2022-10-16T06:30:34;101669.28;;;15.48;84.94
54948;BME280;41113;41.882;12.530;2022-10-16T06:32:59;101675.09;;;15.53;84.83
54948;BME280;41113;41.882;12.530;2022-10-16T06:35:25;101683.53;;;15.69;84.25
54948;BME280;41113;41.882;12.530;2022-10-16T06:37:52;101678.13;;;15.69;83.95
54948;BME280;41113;41.882;12.530;2022-10-16T06:40:18;101684.53;;;15.68;83.82
54948;BME280;41113;41.882;12.530;2022-10-16T06:42:43;101689.53;;;15.63;83.85
54948;BME280;41113;41.882;12.530;2022-10-16T06:45:09;101693.53;;;15.69;84.04
54948;BME280;41113;41.882;12.530;2022-10-16T06:47:35;101698.94;;;15.69;83.87
54948;BME280;41113;41.882;12.530;2022-10-16T06:50:00;101699.94;;;15.68;82.95
54948;BME280;41113;41.882;12.530;2022-10-16T06:52:28;101698.34;;;15.75;83.01
54948;BME280;41113;41.882;12.530;2022-10-16T06:54:53;101704.03;;;15.81;82.40
54948;BME280;41113;41.882;12.530;2022-10-16T06:57:19;101707.16;;;15.86;81.15
54948;BME280;41113;41.882;12.530;2022-10-16T06:59:44;101703.16;;;15.91;80.60
54948;BME280;41113;41.882;12.530;2022-10-16T07:02:09;101707.41;;;16.03;81.04
54948;BME280;41113;41.882;12.530;2022-10-16T07:04:37;101707.69;;;16.09;80.34
54948;BME280;41113;41.882;12.530;2022-10-16T07:07:03;101715.38;;;16.14;79.95
54948;BME280;41113;41.882;12.530;2022-10-16T07:09:28;101723.91;;;16.19;80.05
54948;BME280;41113;41.882;12.530;2022-10-16T07:11:54;101723.19;;;16.17;78.78
54948;BME280;41113;41.882;12.530;2022-10-16T07:14:20;101724.91;;;16.18;79.08
54948;BME280;41113;41.882;12.530;2022-10-16T07:16:46;101729.31;;;16.29;79.29
54948;BME280;41113;41.882;12.530;2022-10-16T07:19:12;101737.00;;;16.33;78.89
54948;BME280;41113;41.882;12.530;2022-10-16T07:21:40;101735.88;;;16.26;78.34
54948;BME280;41113;41.882;12.530;2022-10-16T07:24:10;101729.88;;;16.32;78.20
54948;BME280;41113;41.882;12.530;2022-10-16T07:26:36;101735.69;;;16.37;77.81
54948;BME280;41113;41.882;12.530;2022-10-16T07:29:04;101736.09;;;16.42;77.60
54948;BME280;41113;41.882;12.530;2022-10-16T07:31:30;101746.94;;;16.42;77.18
54948;BME280;41113;41.882;12.530;2022-10-16T07:33:58;101734.50;;;16.49;77.04
54948;BME280;41113;41.882;12.530;2022-10-16T07:36:24;101735.03;;;16.53;76.71
54948;BME280;41113;41.882;12.530;2022-10-16T07:38:49;101736.88;;;16.62;76.44
54948;BME280;41113;41.882;12.530;2022-10-16T07:41:17;101739.19;;;16.67;75.79
54948;BME280;41113;41.882;12.530;2022-10-16T07:43:51;101736.00;;;16.71;76.18
54948;BME280;41113;41.882;12.530;2022-10-16T07:46:17;101740.53;;;16.80;74.90
54948;BME280;41113;41.882;12.530;2022-10-16T07:48:43;101739.34;;;16.83;75.09
54948;BME280;41113;41.882;12.530;2022-10-16T07:51:16;101752.16;;;16.91;75.24
54948;BME280;41113;41.882;12.530;2022-10-16T07:53:42;101750.13;;;17.02;75.11
54948;BME280;41113;41.882;12.530;2022-10-16T07:56:08;101759.03;;;17.13;74.42
54948;BME280;41113;41.882;12.530;2022-10-16T07:58:34;101759.44;;;17.18;73.99
54948;BME280;41113;41.882;12.530;2022-10-16T08:01:10;101756.53;;;17.29;73.89
54948;BME280;41113;41.882;12.530;2022-10-16T08:03:36;101760.41;;;17.44;73.76
54948;BME280;41113;41.882;12.530;2022-10-16T08:06:02;101761.63;;;17.50;73.97
54948;BME280;41113;41.882;12.530;2022-10-16T08:08:29;101760.56;;;17.60;73.88
54948;BME280;41113;41.882;12.530;2022-10-16T08:10:54;101759.94;;;17.66;73.65
54948;BME280;41113;41.882;12.530;2022-10-16T08:13:20;101759.03;;;17.76;73.74
54948;BME280;41113;41.882;12.530;2022-10-16T08:15:47;101757.00;;;17.78;73.31
54948;BME280;41113;41.882;12.530;2022-10-16T08:18:14;101748.91;;;17.86;73.42
54948;BME280;41113;41.882;12.530;2022-10-16T08:20:41;101757.47;;;17.91;72.21
54948;BME280;41113;41.882;12.530;2022-10-16T08:23:07;101756.34;;;18.01;73.00
54948;BME280;41113;41.882;12.530;2022-10-16T08:25:35;101755.88;;;18.06;72.80
54948;BME280;41113;41.882;12.530;2022-10-16T08:28:04;101763.53;;;18.11;72.17
54948;BME280;41113;41.882;12.530;2022-10-16T08:30:31;101758.00;;;18.20;72.31
54948;BME280;41113;41.882;12.530;2022-10-16T08:32:56;101760.47;;;18.31;72.45
54948;BME280;41113;41.882;12.530;2022-10-16T08:35:23;101762.38;;;18.39;71.79
54948;BME280;41113;41.882;12.530;2022-10-16T08:37:49;101765.28;;;18.46;72.16
54948;BME280;41113;41.882;12.530;2022-10-16T08:40:20;101770.81;;;18.54;72.04
54948;BME280;41113;41.882;12.530;2022-10-16T08:48:50;101773.84;;;18.85;71.09
54948;BME280;41113;41.882;12.530;2022-10-16T08:51:20;101766.78;;;19.00;71.26
54948;BME280;41113;41.882;12.530;2022-10-16T08:54:13;101772.94;;;19.10;69.91
54948;BME280;41113;41.882;12.530;2022-10-16T08:56:41;101772.47;;;19.23;70.28
54948;BME280;41113;41.882;12.530;2022-10-16T08:59:10;101782.03;;;19.35;70.25
54948;BME280;41113;41.882;12.530;2022-10-16T09:01:43;101773.19;;;19.49;69.71
54948;BME280;41113;41.882;12.530;2022-10-16T09:04:52;101781.78;;;19.71;67.54
54948;BME280;41113;41.882;12.530;2022-10-16T09:07:29;101788.25;;;19.94;68.34
54948;BME280;41113;41.882;12.530;2022-10-16T09:23:33;101793.63;;;20.67;66.09
54948;BME280;41113;41.882;12.530;2022-10-16T09:25:59;101799.38;;;20.89;65.88
54948;BME280;41113;41.882;12.530;2022-10-16T09:28:25;101796.25;;;21.00;65.55
54948;BME280;41113;41.882;12.530;2022-10-16T09:30:51;101799.66;;;21.02;62.69
54948;BME280;41113;41.882;12.530;2022-10-16T09:33:23;101799.00;;;20.92;62.45
54948;BME280;41113;41.882;12.530;2022-10-16T09:35:54;101795.91;;;20.95;62.68
54948;BME280;41113;41.882;12.530;2022-10-16T09:38:24;101805.41;;;21.15;64.11
54948;BME280;41113;41.882;12.530;2022-10-16T09:40:49;101792.72;;;21.30;63.67
54948;BME280;41113;41.882;12.530;2022-10-16T09:46:05;101790.59;;;21.40;62.88
54948;BME280;41113;41.882;12.530;2022-10-16T09:48:43;101795.75;;;21.35;63.01
54948;BME280;41113;41.882;12.530;2022-10-16T09:51:22;101798.13;;;21.38;62.14
54948;BME280;41113;41.882;12.530;2022-10-16T09:53:53;101794.16;;;21.41;60.75
54948;BME280;41113;41.882;12.530;2022-10-16T09:56:29;101801.50;;;21.49;60.70
54948;BME280;41113;41.882;12.530;2022-10-16T09:59:01;101800.09;;;21.53;61.66
54948;BME280;41113;41.882;12.530;2022-10-16T10:01:45;101808.59;;;21.58;61.60
54948;BME280;41113;41.882;12.530;2022-10-16T10:04:11;101806.09;;;21.71;62.13
54948;BME280;41113;41.882;12.530;2022-10-16T10:09:21;101791.22;;;21.73;61.53
54948;BME280;41113;41.882;12.530;2022-10-16T10:11:59;101791.69;;;21.77;62.17
54948;BME280;41113;41.882;12.530;2022-10-16T10:14:38;101805.03;;;21.80;62.35
54948;BME280;41113;41.882;12.530;2022-10-16T10:19:41;101788.72;;;21.87;60.42
54948;BME280;41113;41.882;12.530;2022-10-16T10:22:32;101788.47;;;21.96;59.33
54948;BME280;41113;41.882;12.530;2022-10-16T10:33:51;101783.63;;;22.07;60.69
54948;BME280;41113;41.882;12.530;2022-10-16T10:36:16;101784.00;;;22.03;61.70
54948;BME280;41113;41.882;12.530;2022-10-16T10:44:11;101777.16;;;21.99;60.48
54948;BME280;41113;41.882;12.530;2022-10-16T10:46:45;101778.53;;;22.03;60.75
54948;BME280;41113;41.882;12.530;2022-10-16T11:06:00;101762.09;;;22.03;57.38
54948;BME280;41113;41.882;12.530;2022-10-16T11:08:59;101760.03;;;22.05;58.94
54948;BME280;41113;41.882;12.530;2022-10-16T11:11:39;101762.09;;;22.03;57.60
54948;BME280;41113;41.882;12.530;2022-10-16T11:14:18;101752.97;;;22.11;58.39
54948;BME280;41113;41.882;12.530;2022-10-16T11:16:57;101752.91;;;22.19;58.87
54948;BME280;41113;41.882;12.530;2022-10-16T11:24:59;101753.47;;;22.15;59.26
54948;BME280;41113;41.882;12.530;2022-10-16T11:27:37;101751.03;;;22.20;59.87
54948;BME280;41113;41.882;12.530;2022-10-16T11:30:06;101753.94;;;22.18;59.51
54948;BME280;41113;41.882;12.530;2022-10-16T11:33:23;101750.63;;;22.23;58.56
54948;BME280;41113;41.882;12.530;2022-10-16T11:38:50;101746.13;;;22.30;58.41
54948;BME280;41113;41.882;12.530;2022-10-16T11:41:42;101740.44;;;22.17;58.11
54948;BME280;41113;41.882;12.530;2022-10-16T11:49:41;101749.03;;;22.28;58.68
54948;BME280;41113;41.882;12.530;2022-10-16T11:52:20;101743.28;;;22.38;58.57
54948;BME280;41113;41.882;12.530;2022-10-16T11:57:38;101736.09;;;22.37;59.12
54948;BME280;41113;41.882;12.530;2022-10-16T12:00:15;101735.72;;;22.40;59.03
54948;BME280;41113;41.882;12.530;2022-10-16T12:06:11;101729.22;;;22.41;57.62
54948;BME280;41113;41.882;12.530;2022-10-16T12:08:40;101725.25;;;22.44;59.11
54948;BME280;41113;41.882;12.530;2022-10-16T12:14:05;101728.00;;;22.58;57.97
54948;BME280;41113;41.882;12.530;2022-10-16T12:16:32;101729.97;;;22.64;58.75
54948;BME280;41113;41.882;12.530;2022-10-16T12:19:18;101728.66;;;22.60;58.58
54948;BME280;41113;41.882;12.530;2022-10-16T12:21:45;101729.69;;;22.59;58.58
54948;BME280;41113;41.882;12.530;2022-10-16T12:24:51;101726.09;;;22.59;58.51
54948;BME280;41113;41.882;12.530;2022-10-16T12:27:31;101717.03;;;22.58;58.70
54948;BME280;41113;41.882;12.530;2022-10-16T12:30:02;101714.59;;;22.63;59.17
54948;BME280;41113;41.882;12.530;2022-10-16T12:32:34;101721.38;;;22.67;59.22
54948;BME280;41113;41.882;12.530;2022-10-16T12:35:02;101714.31;;;22.58;57.48
54948;BME280;41113;41.882;12.530;2022-10-16T12:37:33;101708.25;;;22.63;58.11
54948;BME280;41113;41.882;12.530;2022-10-16T12:39:59;101712.03;;;22.62;59.06
54948;BME280;41113;41.882;12.530;2022-10-16T12:42:35;101708.72;;;22.66;58.81
54948;BME280;41113;41.882;12.530;2022-10-16T12:45:12;101708.25;;;22.63;59.12
54948;BME280;41113;41.882;12.530;2022-10-16T12:47:48;101707.78;;;22.59;56.44
54948;BME280;41113;41.882;12.530;2022-10-16T12:52:49;101704.66;;;22.62;57.64
54948;BME280;41113;41.882;12.530;2022-10-16T12:55:19;101713.28;;;22.59;57.91
54948;BME280;41113;41.882;12.530;2022-10-16T12:57:57;101707.03;;;22.65;57.90
54948;BME280;41113;41.882;12.530;2022-10-16T13:00:32;101712.50;;;22.65;57.97
54948;BME280;41113;41.882;12.530;2022-10-16T13:22:23;101700.22;;;22.61;56.36
54948;BME280;41113;41.882;12.530;2022-10-16T13:32:50;101694.00;;;22.67;55.98
54948;BME280;41113;41.882;12.530;2022-10-16T13:35:20;101697.78;;;22.66;57.42
54948;BME280;41113;41.882;12.530;2022-10-16T13:37:46;101697.69;;;22.60;57.79
54948;BME280;41113;41.882;12.530;2022-10-16T13:40:19;101699.69;;;22.51;57.94
54948;BME280;41113;41.882;12.530;2022-10-16T13:42:45;101700.25;;;22.47;58.45
54948;BME280;41113;41.882;12.530;2022-10-16T13:45:22;101705.06;;;22.45;58.19
54948;BME280;41113;41.882;12.530;2022-10-16T13:47:47;101703.47;;;22.50;58.10
54948;BME280;41113;41.882;12.530;2022-10-16T13:50:16;101705.59;;;22.70;56.65
54948;BME280;41113;41.882;12.530;2022-10-16T13:52:42;101703.31;;;22.73;55.56
54948;BME280;41113;41.882;12.530;2022-10-16T13:55:16;101702.84;;;22.70;56.78
54948;BME280;41113;41.882;12.530;2022-10-16T13:57:42;101704.00;;;22.60;57.29
54948;BME280;41113;41.882;12.530;2022-10-16T14:00:26;101698.72;;;22.59;59.01
54948;BME280;41113;41.882;12.530;2022-10-16T14:03:12;101705.16;;;22.51;62.45
54948;BME280;41113;41.882;12.530;2022-10-16T14:05:49;101708.56;;;22.53;61.73
54948;BME280;41113;41.882;12.530;2022-10-16T14:08:15;101706.47;;;22.55;61.79
54948;BME280;41113;41.882;12.530;2022-10-16T14:10:40;101710.25;;;22.54;62.16
54948;BME280;41113;41.882;12.530;2022-10-16T14:13:07;101696.94;;;22.51;63.21
54948;BME280;41113;41.882;12.530;2022-10-16T14:15:35;101696.28;;;22.49;63.30
54948;BME280;41113;41.882;12.530;2022-10-16T14:18:02;101697.03;;;22.43;63.58
54948;BME280;41113;41.882;12.530;2022-10-16T14:20:31;101697.78;;;22.37;64.32
54948;BME280;41113;41.882;12.530;2022-10-16T14:23:18;101694.00;;;22.38;64.93
54948;BME280;41113;41.882;12.530;2022-10-16T14:25:45;101691.09;;;22.40;64.83
54948;BME280;41113;41.882;12.530;2022-10-16T14:30:49;101690.16;;;22.32;65.51
54948;BME280;41113;41.882;12.530;2022-10-16T14:33:38;101694.38;;;22.35;64.89
54948;BME280;41113;41.882;12.530;2022-10-16T14:36:13;101696.00;;;22.29;65.05
54948;BME280;41113;41.882;12.530;2022-10-16T14:38:41;101694.22;;;22.22;65.81
54948;BME280;41113;41.882;12.530;2022-10-16T14:41:08;101701.56;;;22.21;65.48
54948;BME280;41113;41.882;12.530;2022-10-16T14:43:36;101698.19;;;22.19;65.67
54948;BME280;41113;41.882;12.530;2022-10-16T14:46:07;101707.41;;;22.18;65.68
54948;BME280;41113;41.882;12.530;2022-10-16T14:48:34;101708.09;;;22.20;65.62
54948;BME280;41113;41.882;12.530;2022-10-16T14:51:00;101710.63;;;22.22;65.77
54948;BME280;41113;41.882;12.530;2022-10-16T14:53:25;101708.75;;;22.22;65.81
54948;BME280;41113;41.882;12.530;2022-10-16T14:55:51;101709.03;;;22.27;66.84
54948;BME280;41113;41.882;12.530;2022-10-16T14:58:23;101711.56;;;22.29;66.98
54948;BME280;41113;41.882;12.530;2022-10-16T15:00:49;101703.56;;;22.27;66.73
54948;BME280;41113;41.882;12.530;2022-10-16T15:03:15;101709.88;;;22.28;66.96
54948;BME280;41113;41.882;12.530;2022-10-16T15:05:40;101713.00;;;22.25;67.06